createdAt,value
2017-11-29T00:00:27.951Z,2.33
2017-11-29T00:02:58.748Z,2.30
2017-11-29T00:05:29.511Z,1.90
2017-11-29T00:08:00.274Z,1.97
2017-11-29T00:10:31.018Z,1.93
2017-11-29T00:13:01.786Z,2.30
2017-11-29T00:15:32.533Z,1.90
2017-11-29T00:18:03.309Z,2.20
2017-11-29T00:20:34.073Z,2.40
2017-11-29T00:23:04.848Z,1.83
2017-11-29T00:25:35.622Z,2.00
2017-11-29T00:28:06.393Z,2.20
2017-11-29T00:30:37.158Z,1.87
2017-11-29T00:33:07.961Z,2.40
2017-11-29T00:35:38.709Z,2.20
2017-11-29T00:38:09.510Z,2.33
2017-11-29T00:40:40.282Z,2.40
2017-11-29T00:43:11.052Z,2.20
2017-11-29T00:45:41.838Z,2.20
2017-11-29T00:48:12.601Z,1.90
2017-11-29T00:50:43.353Z,2.30
2017-11-29T00:53:14.162Z,2.63
2017-11-29T00:55:44.950Z,1.90
2017-11-29T00:58:15.737Z,2.20
2017-11-29T01:00:46.510Z,1.80
2017-11-29T01:03:17.273Z,2.40
2017-11-29T01:05:48.055Z,1.90
2017-11-29T01:08:18.827Z,2.10
2017-11-29T01:10:49.593Z,2.17
2017-11-29T01:13:20.380Z,2.00
2017-11-29T01:15:51.148Z,2.13
2017-11-29T01:18:21.927Z,2.17
2017-11-29T01:20:52.669Z,2.00
2017-11-29T01:23:23.459Z,2.03
2017-11-29T01:25:54.219Z,2.10
2017-11-29T01:28:24.974Z,2.10
2017-11-29T01:30:55.742Z,2.00
2017-11-29T01:33:26.494Z,2.40
2017-11-29T01:35:57.262Z,2.10
2017-11-29T01:38:28.023Z,2.20
2017-11-29T01:40:58.779Z,1.97
2017-11-29T01:43:29.534Z,2.00
2017-11-29T01:46:00.297Z,2.03
2017-11-29T01:48:31.070Z,2.00
2017-11-29T01:51:01.853Z,2.00
2017-11-29T01:53:32.601Z,2.07
2017-11-29T01:56:03.378Z,2.00
2017-11-29T01:58:34.151Z,1.93
2017-11-29T02:01:04.924Z,2.40
2017-11-29T02:03:35.685Z,2.00
2017-11-29T02:06:06.452Z,1.90
2017-11-29T02:08:37.250Z,1.70
2017-11-29T02:11:07.994Z,1.70
2017-11-29T02:13:38.774Z,1.90
2017-11-29T02:16:09.528Z,1.90
2017-11-29T02:18:40.310Z,1.50
2017-11-29T02:21:11.122Z,2.23
2017-11-29T02:23:41.878Z,1.97
2017-11-29T02:26:12.642Z,2.07
2017-11-29T02:28:43.420Z,2.10
2017-11-29T02:31:14.181Z,1.73
2017-11-29T02:33:44.948Z,1.70
2017-11-29T02:36:15.698Z,2.00
2017-11-29T02:38:46.480Z,1.83
2017-11-29T02:41:17.249Z,1.80
2017-11-29T02:43:48.004Z,2.03
2017-11-29T02:46:18.851Z,1.80
2017-11-29T02:48:49.606Z,2.00
2017-11-29T02:51:20.390Z,2.13
2017-11-29T02:53:51.129Z,1.90
2017-11-29T02:56:21.899Z,1.90
2017-11-29T02:58:52.667Z,1.60
2017-11-29T03:01:23.419Z,1.80
2017-11-29T03:03:54.182Z,1.90
2017-11-29T03:06:24.930Z,1.77
2017-11-29T03:08:55.698Z,1.87
2017-11-29T03:11:26.495Z,1.60
2017-11-29T03:13:57.258Z,1.83
2017-11-29T03:16:28.018Z,1.70
2017-11-29T03:18:58.765Z,1.93
2017-11-29T03:21:29.542Z,1.70
2017-11-29T03:24:00.298Z,1.80
2017-11-29T03:26:31.096Z,1.97
2017-11-29T03:29:01.838Z,1.60
2017-11-29T03:31:32.618Z,1.90
2017-11-29T03:34:03.370Z,1.90
2017-11-29T03:36:34.159Z,1.80
2017-11-29T03:39:04.940Z,1.80
2017-11-29T03:41:35.689Z,2.13
2017-11-29T03:44:06.469Z,1.70
2017-11-29T03:46:37.238Z,2.00
2017-11-29T03:49:08.039Z,2.00
2017-11-29T03:51:38.802Z,2.30
2017-11-29T03:54:09.587Z,2.00
2017-11-29T03:56:40.345Z,2.03
2017-11-29T03:59:11.110Z,2.00
2017-11-29T04:01:41.901Z,1.90
2017-11-29T04:04:12.653Z,2.33
2017-11-29T04:06:43.425Z,2.27
2017-11-29T04:09:14.177Z,1.80
2017-11-29T04:11:44.974Z,1.80
2017-11-29T04:14:15.710Z,2.10
2017-11-29T04:16:46.497Z,2.00
2017-11-29T04:19:17.265Z,2.40
2017-11-29T04:21:48.027Z,2.10
2017-11-29T04:24:18.774Z,2.00
2017-11-29T04:26:49.541Z,2.07
2017-11-29T04:29:20.289Z,2.60
2017-11-29T04:31:51.057Z,2.23
2017-11-29T04:34:21.838Z,2.00
2017-11-29T04:36:52.638Z,2.47
2017-11-29T04:39:23.388Z,1.97
2017-11-29T04:41:54.198Z,2.30
2017-11-29T04:44:24.984Z,2.47
2017-11-29T04:46:55.746Z,2.33
2017-11-29T04:49:26.522Z,2.13
2017-11-29T04:51:57.277Z,2.03
2017-11-29T04:54:28.055Z,2.40
2017-11-29T04:56:58.806Z,2.07
2017-11-29T04:59:29.578Z,2.00
2017-11-29T05:02:00.336Z,2.20
2017-11-29T05:04:31.100Z,2.23
2017-11-29T05:07:01.866Z,2.23
2017-11-29T05:09:32.625Z,1.90
2017-11-29T05:12:03.406Z,2.50
2017-11-29T05:14:34.178Z,2.20
2017-11-29T05:17:04.966Z,2.40
2017-11-29T05:19:35.750Z,2.20
2017-11-29T05:22:06.510Z,2.27
2017-11-29T05:24:37.289Z,2.40
2017-11-29T05:27:08.061Z,2.33
2017-11-29T05:29:38.845Z,2.20
2017-11-29T05:32:09.594Z,2.30
2017-11-29T05:34:40.389Z,2.80
2017-11-29T05:37:11.130Z,2.53
2017-11-29T05:39:41.917Z,2.13
2017-11-29T05:42:12.697Z,2.20
2017-11-29T05:44:43.459Z,2.50
2017-11-29T05:47:14.215Z,2.60
2017-11-29T05:49:44.982Z,2.40
2017-11-29T05:52:15.755Z,2.10
2017-11-29T05:54:46.534Z,2.23
2017-11-29T05:57:17.275Z,1.90
2017-11-29T05:59:48.039Z,2.30
2017-11-29T06:02:18.794Z,2.40
2017-11-29T06:04:49.597Z,2.10
2017-11-29T06:07:20.342Z,2.40
2017-11-29T06:09:51.113Z,2.13
2017-11-29T06:12:21.857Z,2.87
2017-11-29T06:14:52.630Z,2.20
2017-11-29T06:17:23.402Z,2.00
2017-11-29T06:19:54.194Z,2.53
2017-11-29T06:22:24.953Z,2.10
2017-11-29T06:24:55.713Z,1.93
2017-11-29T06:27:26.489Z,1.93
2017-11-29T06:29:57.229Z,2.50
2017-11-29T06:32:28.029Z,2.60
2017-11-29T06:34:58.777Z,1.73
2017-11-29T06:37:29.542Z,2.37
2017-11-29T06:40:00.314Z,2.00
2017-11-29T06:42:31.070Z,2.10
2017-11-29T06:45:01.835Z,2.03
2017-11-29T06:47:32.624Z,2.23
2017-11-29T06:50:03.387Z,2.27
2017-11-29T06:52:34.173Z,2.07
2017-11-29T06:55:04.946Z,2.67
2017-11-29T06:57:35.708Z,2.13
2017-11-29T07:00:06.446Z,2.00
2017-11-29T07:02:37.220Z,2.50
2017-11-29T07:05:07.966Z,2.30
2017-11-29T07:07:38.738Z,2.10
2017-11-29T07:10:09.502Z,2.13
2017-11-29T07:12:40.261Z,2.40
2017-11-29T07:15:11.037Z,2.00
2017-11-29T07:17:41.810Z,2.37
2017-11-29T07:20:12.574Z,2.40
2017-11-29T07:22:43.382Z,2.40
2017-11-29T07:25:14.145Z,2.03
2017-11-29T07:27:44.926Z,2.43
2017-11-29T07:30:15.700Z,2.43
2017-11-29T07:32:46.481Z,2.30
2017-11-29T07:35:17.234Z,2.40
2017-11-29T07:37:48.006Z,2.10
2017-11-29T07:40:18.758Z,2.00
2017-11-29T07:42:49.558Z,1.90
2017-11-29T07:45:20.329Z,2.20
2017-11-29T07:47:51.132Z,2.20
2017-11-29T07:50:21.885Z,2.00
2017-11-29T07:52:52.666Z,2.40
2017-11-29T07:55:23.416Z,2.30
2017-11-29T07:57:54.210Z,2.00
2017-11-29T08:00:25.019Z,2.77
2017-11-29T08:02:55.774Z,2.60
2017-11-29T08:05:26.529Z,2.30
2017-11-29T08:07:57.307Z,2.33
2017-11-29T08:10:28.091Z,2.40
2017-11-29T08:12:58.859Z,3.00
2017-11-29T08:15:29.604Z,2.40
2017-11-29T08:18:00.378Z,2.47
2017-11-29T08:20:31.159Z,2.73
2017-11-29T08:23:01.938Z,2.43
2017-11-29T08:25:32.682Z,2.80
2017-11-29T08:28:03.470Z,2.40
2017-11-29T08:30:34.238Z,2.50
2017-11-29T08:33:05.018Z,2.53
2017-11-29T08:35:35.786Z,2.37
2017-11-29T08:38:07.493Z,2.57
2017-11-29T08:40:38.274Z,2.50
2017-11-29T08:43:09.029Z,2.57
2017-11-29T08:45:39.818Z,3.23
2017-11-29T08:48:10.602Z,2.70
2017-11-29T08:50:42.037Z,2.80
2017-11-29T08:53:12.788Z,2.10
2017-11-29T08:55:43.570Z,2.87
2017-11-29T08:58:14.321Z,2.70
2017-11-29T09:00:45.082Z,2.70
2017-11-29T09:03:15.856Z,2.93
2017-11-29T09:05:46.630Z,2.63
2017-11-29T09:08:17.410Z,2.60
2017-11-29T09:10:48.173Z,2.73
2017-11-29T09:13:18.938Z,2.60
2017-11-29T09:15:49.708Z,2.60
2017-11-29T09:18:20.474Z,2.40
2017-11-29T09:20:51.237Z,2.50
2017-11-29T09:23:22.018Z,2.60
2017-11-29T09:25:52.761Z,2.40
2017-11-29T09:28:23.538Z,2.30
2017-11-29T09:30:54.294Z,2.43
2017-11-29T09:33:25.066Z,2.57
2017-11-29T09:35:55.850Z,2.30
2017-11-29T09:38:26.610Z,2.00
2017-11-29T09:40:57.377Z,2.23
2017-11-29T09:43:28.143Z,2.30
2017-11-29T09:45:58.913Z,2.50
2017-11-29T09:48:29.687Z,2.20
2017-11-29T09:51:00.454Z,2.20
2017-11-29T09:53:31.258Z,2.23
2017-11-29T09:56:01.998Z,2.10
2017-11-29T09:58:32.753Z,2.40
2017-11-29T10:01:03.530Z,2.23
2017-11-29T10:03:34.314Z,2.40
2017-11-29T10:06:05.074Z,2.30
2017-11-29T10:08:35.844Z,2.40
2017-11-29T10:11:06.606Z,2.00
2017-11-29T10:13:37.478Z,2.10
2017-11-29T10:16:08.210Z,2.23
2017-11-29T10:18:39.006Z,2.20
2017-11-29T10:21:09.767Z,2.50
2017-11-29T10:23:40.572Z,2.10
2017-11-29T10:26:11.318Z,2.40
2017-11-29T10:28:42.102Z,2.57
2017-11-29T10:31:12.864Z,2.60
2017-11-29T10:33:43.665Z,2.60
2017-11-29T10:36:14.429Z,2.40
2017-11-29T10:38:45.192Z,2.37
2017-11-29T10:41:15.943Z,2.20
2017-11-29T10:43:46.698Z,2.20
2017-11-29T10:46:17.486Z,2.20
2017-11-29T10:48:48.263Z,2.30
2017-11-29T10:51:19.027Z,2.17
2017-11-29T10:53:49.794Z,2.07
2017-11-29T10:56:20.558Z,2.03
2017-11-29T10:58:51.351Z,2.00
2017-11-29T11:01:22.084Z,2.10
2017-11-29T11:03:52.853Z,2.07
2017-11-29T11:06:23.617Z,1.97
2017-11-29T11:08:54.394Z,1.93
2017-11-29T11:11:25.150Z,2.10
2017-11-29T11:13:55.928Z,2.10
2017-11-29T11:16:26.676Z,2.30
2017-11-29T11:18:57.442Z,2.37
2017-11-29T11:21:28.216Z,2.00
2017-11-29T11:23:59.022Z,2.10
2017-11-29T11:26:29.809Z,2.00
2017-11-29T11:29:00.570Z,1.80
2017-11-29T11:31:31.357Z,2.03
2017-11-29T11:34:02.118Z,2.20
2017-11-29T11:36:32.907Z,1.83
2017-11-29T11:39:03.666Z,1.77
2017-11-29T11:41:34.427Z,2.30
2017-11-29T11:44:05.202Z,2.20
2017-11-29T11:46:35.966Z,1.83
2017-11-29T11:49:06.748Z,2.00
2017-11-29T11:51:37.484Z,1.90
2017-11-29T11:54:08.267Z,1.90
2017-11-29T11:56:39.055Z,2.00
2017-11-29T11:59:09.826Z,1.90
2017-11-29T12:01:40.615Z,2.27
2017-11-29T12:04:11.842Z,2.10
2017-11-29T12:06:42.598Z,2.20
2017-11-29T12:09:13.347Z,1.80
2017-11-29T12:11:44.110Z,1.80
2017-11-29T12:14:14.861Z,2.00
2017-11-29T12:16:45.632Z,1.80
2017-11-29T12:19:16.426Z,1.90
2017-11-29T12:21:47.176Z,1.93
2017-11-29T12:24:17.959Z,1.80
2017-11-29T12:26:48.740Z,1.70
2017-11-29T12:29:19.506Z,1.90
2017-11-29T12:31:50.281Z,1.70
2017-11-29T12:34:21.073Z,1.90
2017-11-29T12:36:51.839Z,1.60
2017-11-29T12:39:22.607Z,1.80
2017-11-29T12:41:53.362Z,1.90
2017-11-29T12:44:24.150Z,1.97
2017-11-29T12:46:54.898Z,2.17
2017-11-29T12:49:25.698Z,1.70
2017-11-29T12:51:56.449Z,2.07
2017-11-29T12:54:27.227Z,2.03
2017-11-29T12:56:57.986Z,2.10
2017-11-29T12:59:28.770Z,1.80
2017-11-29T13:01:59.528Z,2.10
2017-11-29T13:04:30.290Z,2.13
2017-11-29T13:07:01.062Z,2.00
2017-11-29T13:09:31.858Z,1.90
2017-11-29T13:12:02.610Z,2.00
2017-11-29T13:14:33.395Z,1.87
2017-11-29T13:17:04.161Z,1.80
2017-11-29T13:19:34.929Z,2.03
2017-11-29T13:22:05.678Z,1.87
2017-11-29T13:24:36.454Z,1.97
2017-11-29T13:27:07.217Z,1.80
2017-11-29T13:29:37.981Z,2.10
2017-11-29T13:32:08.758Z,1.80
2017-11-29T13:34:39.553Z,1.60
2017-11-29T13:37:10.320Z,1.90
2017-11-29T13:39:41.090Z,2.07
2017-11-29T13:42:11.890Z,1.70
2017-11-29T13:44:42.640Z,1.90
2017-11-29T13:47:13.427Z,1.80
2017-11-29T13:49:44.216Z,1.90
2017-11-29T13:52:14.965Z,1.77
2017-11-29T13:54:45.737Z,1.60
2017-11-29T13:57:16.502Z,1.80
2017-11-29T13:59:47.258Z,1.80
2017-11-29T14:02:18.056Z,1.80
2017-11-29T14:04:48.846Z,1.80
2017-11-29T14:07:19.609Z,1.80
2017-11-29T14:09:50.406Z,1.80
2017-11-29T14:12:21.176Z,1.90
2017-11-29T14:14:51.968Z,1.90
2017-11-29T14:17:22.736Z,1.80
2017-11-29T14:19:53.514Z,1.73
2017-11-29T14:22:24.279Z,1.80
2017-11-29T14:24:55.055Z,1.80
2017-11-29T14:27:25.866Z,2.07
2017-11-29T14:29:56.624Z,2.00
2017-11-29T14:32:27.410Z,1.67
2017-11-29T14:34:58.166Z,1.83
2017-11-29T14:37:28.944Z,2.00
2017-11-29T14:39:59.701Z,1.70
2017-11-29T14:42:30.454Z,1.77
2017-11-29T14:45:01.229Z,1.80
2017-11-29T14:47:31.982Z,1.90
2017-11-29T14:50:02.754Z,1.83
2017-11-29T14:52:33.538Z,1.70
2017-11-29T14:55:04.327Z,2.00
2017-11-29T14:57:35.089Z,2.10
2017-11-29T15:00:05.871Z,2.17
2017-11-29T15:02:36.649Z,2.10
2017-11-29T15:05:07.394Z,1.83
2017-11-29T15:07:38.167Z,1.97
2017-11-29T15:10:08.926Z,2.10
2017-11-29T15:12:39.712Z,1.90
2017-11-29T15:15:10.670Z,2.00
2017-11-29T15:17:41.472Z,1.90
2017-11-29T15:20:12.223Z,1.77
2017-11-29T15:22:43.003Z,2.00
2017-11-29T15:25:13.784Z,2.10
2017-11-29T15:27:44.566Z,2.10
2017-11-29T15:30:15.361Z,2.00
2017-11-29T15:32:46.103Z,2.40
2017-11-29T15:35:16.869Z,2.17
2017-11-29T15:37:47.695Z,1.90
2017-11-29T15:40:18.462Z,2.30
2017-11-29T15:42:49.243Z,2.03
2017-11-29T15:45:19.998Z,2.00
2017-11-29T15:47:50.750Z,2.00
2017-11-29T15:50:21.524Z,2.07
2017-11-29T15:52:52.303Z,2.00
2017-11-29T15:55:23.054Z,2.00
2017-11-29T15:57:53.834Z,2.40
2017-11-29T16:00:24.602Z,2.00
2017-11-29T16:02:55.383Z,2.03
2017-11-29T16:05:26.151Z,2.00
2017-11-29T16:07:56.898Z,2.20
2017-11-29T16:10:27.666Z,1.80
2017-11-29T16:12:58.432Z,2.20
2017-11-29T16:15:29.210Z,2.00
2017-11-29T16:17:59.993Z,2.10
2017-11-29T16:20:30.762Z,2.23
2017-11-29T16:23:01.537Z,2.30
2017-11-29T16:25:32.345Z,2.13
2017-11-29T16:28:03.090Z,2.20
2017-11-29T16:30:33.889Z,2.30
2017-11-29T16:33:04.670Z,2.20
2017-11-29T16:35:35.444Z,1.90
2017-11-29T16:38:06.189Z,2.10
2017-11-29T16:40:36.954Z,2.00
2017-11-29T16:43:07.712Z,1.90
2017-11-29T16:45:38.564Z,2.30
2017-11-29T16:48:09.341Z,2.10
2017-11-29T16:50:40.116Z,2.10
2017-11-29T16:53:10.881Z,2.07
2017-11-29T16:55:41.681Z,1.80
2017-11-29T16:58:12.451Z,2.20
2017-11-29T17:00:43.238Z,2.00
2017-11-29T17:03:14.019Z,1.97
2017-11-29T17:05:44.801Z,2.10
2017-11-29T17:08:15.563Z,2.13
2017-11-29T17:10:46.342Z,1.77
2017-11-29T17:13:17.089Z,1.90
2017-11-29T17:15:47.895Z,1.87
2017-11-29T17:18:18.650Z,2.20
2017-11-29T17:20:49.421Z,2.23
2017-11-29T17:23:20.210Z,2.40
2017-11-29T17:25:50.961Z,2.63
2017-11-29T17:28:21.709Z,2.40
2017-11-29T17:30:52.466Z,2.10
2017-11-29T17:33:23.263Z,2.30
2017-11-29T17:35:54.062Z,2.30
2017-11-29T17:38:24.830Z,2.23
2017-11-29T17:40:55.631Z,2.87
2017-11-29T17:43:26.442Z,2.90
2017-11-29T17:45:57.231Z,3.03
2017-11-29T17:48:28.001Z,2.33
2017-11-29T17:50:58.737Z,2.70
2017-11-29T17:53:29.509Z,2.40
2017-11-29T17:56:00.273Z,2.40
2017-11-29T17:58:31.051Z,2.53
2017-11-29T18:01:01.820Z,2.93
2017-11-29T18:03:32.590Z,2.80
2017-11-29T18:06:03.392Z,2.70
2017-11-29T18:08:34.161Z,2.93
2017-11-29T18:11:04.941Z,2.60
2017-11-29T18:13:35.680Z,2.90
2017-11-29T18:16:06.462Z,2.70
2017-11-29T18:18:37.236Z,2.90
2017-11-29T18:21:08.040Z,3.60
2017-11-29T18:23:38.818Z,3.03
2017-11-29T18:26:09.589Z,3.10
2017-11-29T18:28:40.401Z,3.27
2017-11-29T18:31:11.149Z,3.03
2017-11-29T18:33:41.939Z,2.90
2017-11-29T18:36:12.704Z,2.83
2017-11-29T18:38:43.520Z,3.50
2017-11-29T18:41:14.278Z,3.80
2017-11-29T18:43:45.058Z,3.90
2017-11-29T18:46:15.877Z,4.43
2017-11-29T18:48:46.638Z,3.70
2017-11-29T18:51:17.396Z,3.67
2017-11-29T18:53:48.202Z,3.60
2017-11-29T18:56:18.967Z,3.70
2017-11-29T18:58:49.753Z,4.13
2017-11-29T19:01:20.578Z,3.70
2017-11-29T19:03:51.318Z,3.93
2017-11-29T19:06:22.104Z,4.03
2017-11-29T19:08:52.862Z,4.13
2017-11-29T19:11:23.634Z,4.20
2017-11-29T19:13:54.438Z,4.40
2017-11-29T19:16:25.222Z,4.07
2017-11-29T19:18:56.066Z,4.20
2017-11-29T19:21:26.834Z,4.90
2017-11-29T19:23:57.652Z,4.27
2017-11-29T19:26:28.436Z,4.10
2017-11-29T19:28:59.197Z,4.03
2017-11-29T19:31:30.014Z,4.20
2017-11-29T19:34:00.785Z,4.07
2017-11-29T19:36:31.558Z,4.10
2017-11-29T19:39:02.359Z,4.00
2017-11-29T19:41:33.115Z,3.93
2017-11-29T19:44:03.926Z,4.03
2017-11-29T19:46:34.719Z,4.17
2017-11-29T19:49:05.466Z,4.10
2017-11-29T19:51:36.248Z,4.30
2017-11-29T19:54:06.994Z,3.90
2017-11-29T19:56:37.786Z,4.00
2017-11-29T19:59:08.535Z,4.47
2017-11-29T20:01:39.323Z,4.77
2017-11-29T20:04:10.095Z,3.97
2017-11-29T20:06:40.910Z,4.50
2017-11-29T20:09:11.713Z,4.40
2017-11-29T20:11:42.505Z,4.17
2017-11-29T20:14:13.261Z,4.27
2017-11-29T20:16:44.039Z,4.53
2017-11-29T20:19:14.828Z,4.20
2017-11-29T20:21:45.594Z,4.50
2017-11-29T20:24:16.412Z,4.43
2017-11-29T20:26:47.182Z,4.07
2017-11-29T20:29:17.972Z,3.97
2017-11-29T20:31:48.783Z,4.37
2017-11-29T20:34:19.553Z,4.20
2017-11-29T20:36:50.326Z,4.53
2017-11-29T20:39:21.142Z,4.30
2017-11-29T20:41:51.902Z,4.20
2017-11-29T20:44:22.751Z,3.90
2017-11-29T20:46:53.518Z,4.23
2017-11-29T20:49:24.298Z,4.23
2017-11-29T20:51:55.090Z,4.43
2017-11-29T20:54:25.862Z,3.97
2017-11-29T20:56:56.643Z,4.37
2017-11-29T20:59:27.450Z,4.33
2017-11-29T21:01:58.303Z,4.40
2017-11-29T21:04:29.120Z,3.87
2017-11-29T21:06:59.870Z,4.27
2017-11-29T21:09:30.623Z,4.00
2017-11-29T21:12:01.410Z,4.10
2017-11-29T21:14:32.178Z,4.23
2017-11-29T21:17:02.974Z,3.90
2017-11-29T21:19:33.735Z,4.10
2017-11-29T21:22:04.499Z,4.20
2017-11-29T21:24:35.272Z,4.70
2017-11-29T21:27:06.050Z,3.90
2017-11-29T21:29:36.898Z,4.30
2017-11-29T21:32:07.652Z,3.93
2017-11-29T21:34:38.437Z,4.23
2017-11-29T21:37:09.222Z,4.07
2017-11-29T21:39:39.992Z,4.00
2017-11-29T21:42:10.771Z,4.37
2017-11-29T21:44:41.576Z,4.70
2017-11-29T21:47:12.355Z,4.40
2017-11-29T21:49:43.127Z,4.20
2017-11-29T21:52:13.914Z,4.43
2017-11-29T21:54:44.681Z,4.23
2017-11-29T21:57:15.451Z,4.50
2017-11-29T21:59:46.226Z,3.90
2017-11-29T22:02:16.994Z,4.00
2017-11-29T22:04:47.766Z,4.17
2017-11-29T22:07:18.549Z,3.90
2017-11-29T22:09:49.367Z,4.40
2017-11-29T22:12:20.130Z,4.87
2017-11-29T22:14:50.898Z,4.40
2017-11-29T22:17:21.653Z,4.50
2017-11-29T22:19:52.429Z,4.00
2017-11-29T22:22:23.210Z,4.70
2017-11-29T22:24:53.986Z,4.63
2017-11-29T22:27:24.758Z,4.03
2017-11-29T22:29:55.530Z,4.60
2017-11-29T22:32:26.304Z,4.30
2017-11-29T22:34:57.070Z,4.83
2017-11-29T22:37:27.863Z,4.67
2017-11-29T22:39:58.650Z,4.37
2017-11-29T22:42:29.403Z,4.13
2017-11-29T22:45:00.208Z,4.47
2017-11-29T22:47:30.955Z,3.83
2017-11-29T22:50:01.723Z,4.00
2017-11-29T22:52:32.469Z,4.10
2017-11-29T22:55:03.269Z,4.07
2017-11-29T22:57:34.023Z,4.50
2017-11-29T23:00:04.817Z,4.50
2017-11-29T23:02:35.558Z,4.50
2017-11-29T23:05:06.334Z,4.50
2017-11-29T23:07:37.086Z,4.67
2017-11-29T23:10:07.862Z,4.60
2017-11-29T23:12:38.650Z,5.17
2017-11-29T23:15:09.406Z,5.10
2017-11-29T23:17:40.201Z,4.97
2017-11-29T23:20:10.953Z,4.80
2017-11-29T23:22:41.728Z,4.50
2017-11-29T23:25:12.490Z,4.77
2017-11-29T23:27:43.274Z,4.83
2017-11-29T23:30:14.046Z,4.70
2017-11-29T23:32:44.865Z,4.80
2017-11-29T23:35:15.634Z,5.10
2017-11-29T23:37:46.402Z,5.20
2017-11-29T23:40:17.182Z,4.80
2017-11-29T23:42:47.947Z,4.73
2017-11-29T23:45:18.721Z,5.07
2017-11-29T23:47:49.513Z,4.50
2017-11-29T23:50:20.272Z,4.37
2017-11-29T23:52:51.074Z,4.83
2017-11-29T23:55:21.823Z,4.90
2017-11-29T23:57:52.601Z,4.80
